sensor_id;sensor_type;location;lat;lon;timestamp;pressure;altitude;pressure_sealevel;temperature;humidity
6514;BME280;3290;47.716;9.070;2023-02-14T00:00:36;98854.19;;;4.15;100.00
6514;BME280;3290;47.716;9.070;2023-02-14T00:03:01;98859.22;;;4.16;100.00
6514;BME280;3290;47.716;9.070;2023-02-14T00:05:26;98859.28;;;4.26;100.00
6514;BME280;3290;47.716;9.070;2023-02-14T00:07:52;98848.72;;;4.18;100.00
6514;BME280;3290;47.716;9.070;2023-02-14T00:10:17;98858.38;;;4.16;100.00
6514;BME280;3290;47.716;9.070;2023-02-14T00:12:43;98856.19;;;4.11;100.00
6514;BME280;3290;47.716;9.070;2023-02-14T00:15:08;98858.78;;;4.11;100.00
6514;BME280;3290;47.716;9.070;2023-02-14T00:17:47;98860.09;;;4.06;100.00
6514;BME280;3290;47.716;9.070;2023-02-14T00:20:12;98863.50;;;3.86;100.00
6514;BME280;3290;47.716;9.070;2023-02-14T00:22:38;98857.44;;;3.97;100.00
6514;BME280;3290;47.716;9.070;2023-02-14T00:25:03;98845.00;;;3.91;100.00
6514;BME280;3290;47.716;9.070;2023-02-14T00:27:29;98847.91;;;3.97;100.00
6514;BME280;3290;47.716;9.070;2023-02-14T00:29:55;98838.84;;;4.12;100.00
6514;BME280;3290;47.716;9.070;2023-02-14T00:32:22;98850.81;;;4.03;100.00
6514;BME280;3290;47.716;9.070;2023-02-14T00:34:47;98850.00;;;4.03;100.00
6514;BME280;3290;47.716;9.070;2023-02-14T00:37:13;98857.91;;;4.01;100.00
6514;BME280;3290;47.716;9.070;2023-02-14T00:39:38;98851.25;;;4.08;100.00
6514;BME280;3290;47.716;9.070;2023-02-14T00:42:03;98848.09;;;4.05;100.00
6514;BME280;3290;47.716;9.070;2023-02-14T00:44:29;98850.56;;;4.06;100.00
6514;BME280;3290;47.716;9.070;2023-02-14T00:46:54;98850.94;;;4.02;100.00
6514;BME280;3290;47.716;9.070;2023-02-14T00:49:20;98850.59;;;4.16;100.00
6514;BME280;3290;47.716;9.070;2023-02-14T00:51:45;98841.19;;;4.15;100.00
6514;BME280;3290;47.716;9.070;2023-02-14T00:54:10;98841.91;;;4.17;100.00
6514;BME280;3290;47.716;9.070;2023-02-14T00:56:36;98845.31;;;3.97;100.00
6514;BME280;3290;47.716;9.070;2023-02-14T00:59:01;98854.81;;;3.87;100.00
6514;BME280;3290;47.716;9.070;2023-02-14T01:01:26;98846.81;;;3.79;100.00
6514;BME280;3290;47.716;9.070;2023-02-14T01:03:52;98847.66;;;3.80;100.00
6514;BME280;3290;47.716;9.070;2023-02-14T01:06:18;98850.25;;;3.80;100.00
6514;BME280;3290;47.716;9.070;2023-02-14T01:08:43;98850.75;;;3.94;100.00
6514;BME280;3290;47.716;9.070;2023-02-14T01:13:36;98847.72;;;3.89;100.00
6514;BME280;3290;47.716;9.070;2023-02-14T01:16:05;98840.25;;;3.75;100.00
6514;BME280;3290;47.716;9.070;2023-02-14T01:18:32;98839.50;;;3.84;100.00
6514;BME280;3290;47.716;9.070;2023-02-14T01:23:40;98834.69;;;4.00;100.00
6514;BME280;3290;47.716;9.070;2023-02-14T01:26:06;98835.22;;;3.94;100.00
6514;BME280;3290;47.716;9.070;2023-02-14T01:28:33;98839.94;;;3.89;100.00
6514;BME280;3290;47.716;9.070;2023-02-14T01:31:13;98831.94;;;3.92;100.00
6514;BME280;3290;47.716;9.070;2023-02-14T01:33:40;98839.75;;;3.81;100.00
6514;BME280;3290;47.716;9.070;2023-02-14T01:36:14;98835.44;;;3.91;100.00
6514;BME280;3290;47.716;9.070;2023-02-14T01:38:39;98829.44;;;3.91;100.00
6514;BME280;3290;47.716;9.070;2023-02-14T01:41:04;98835.22;;;3.94;100.00
6514;BME280;3290;47.716;9.070;2023-02-14T01:43:30;98839.44;;;3.95;100.00
6514;BME280;3290;47.716;9.070;2023-02-14T01:45:55;98821.59;;;3.81;100.00
6514;BME280;3290;47.716;9.070;2023-02-14T01:48:21;98828.69;;;3.79;100.00
6514;BME280;3290;47.716;9.070;2023-02-14T01:50:48;98825.69;;;3.63;100.00
6514;BME280;3290;47.716;9.070;2023-02-14T01:53:25;98829.38;;;3.61;100.00
6514;BME280;3290;47.716;9.070;2023-02-14T01:55:59;98826.53;;;3.64;100.00
6514;BME280;3290;47.716;9.070;2023-02-14T01:58:29;98828.50;;;3.71;100.00
6514;BME280;3290;47.716;9.070;2023-02-14T02:00:56;98825.22;;;3.69;100.00
6514;BME280;3290;47.716;9.070;2023-02-14T02:03:25;98820.16;;;3.68;100.00
6514;BME280;3290;47.716;9.070;2023-02-14T02:05:54;98824.31;;;3.59;100.00
6514;BME280;3290;47.716;9.070;2023-02-14T02:08:22;98824.63;;;3.86;100.00
6514;BME280;3290;47.716;9.070;2023-02-14T02:10:47;98818.00;;;3.53;100.00
6514;BME280;3290;47.716;9.070;2023-02-14T02:13:18;98823.31;;;3.71;100.00
6514;BME280;3290;47.716;9.070;2023-02-14T02:21:22;98821.09;;;3.67;100.00
6514;BME280;3290;47.716;9.070;2023-02-14T02:32:40;98807.81;;;3.81;100.00
6514;BME280;3290;47.716;9.070;2023-02-14T02:38:19;98800.94;;;3.70;100.00
6514;BME280;3290;47.716;9.070;2023-02-14T02:46:30;98792.53;;;3.58;100.00
6514;BME280;3290;47.716;9.070;2023-02-14T02:52:02;98799.34;;;3.58;100.00
6514;BME280;3290;47.716;9.070;2023-02-14T02:54:57;98798.00;;;3.44;100.00
6514;BME280;3290;47.716;9.070;2023-02-14T02:57:28;98802.69;;;3.50;100.00
6514;BME280;3290;47.716;9.070;2023-02-14T02:59:56;98796.44;;;3.52;100.00
6514;BME280;3290;47.716;9.070;2023-02-14T03:02:35;98788.78;;;3.51;100.00
6514;BME280;3290;47.716;9.070;2023-02-14T03:05:22;98797.72;;;3.58;100.00
6514;BME280;3290;47.716;9.070;2023-02-14T03:07:48;98787.09;;;3.60;100.00
6514;BME280;3290;47.716;9.070;2023-02-14T03:10:19;98782.63;;;3.62;100.00
6514;BME280;3290;47.716;9.070;2023-02-14T03:15:29;98782.72;;;3.41;100.00
6514;BME280;3290;47.716;9.070;2023-02-14T03:21:18;98780.34;;;3.49;100.00
6514;BME280;3290;47.716;9.070;2023-02-14T03:23:51;98777.66;;;3.39;100.00
6514;BME280;3290;47.716;9.070;2023-02-14T03:29:26;98779.50;;;3.48;100.00
6514;BME280;3290;47.716;9.070;2023-02-14T03:37:46;98790.06;;;3.56;100.00
6514;BME280;3290;47.716;9.070;2023-02-14T03:40:30;98792.09;;;3.53;100.00
6514;BME280;3290;47.716;9.070;2023-02-14T03:43:29;98794.28;;;3.37;100.00
6514;BME280;3290;47.716;9.070;2023-02-14T03:46:04;98795.69;;;3.61;100.00
6514;BME280;3290;47.716;9.070;2023-02-14T03:48:32;98796.81;;;3.48;100.00
6514;BME280;3290;47.716;9.070;2023-02-14T03:51:00;98795.59;;;3.52;100.00
6514;BME280;3290;47.716;9.070;2023-02-14T03:53:29;98797.88;;;3.65;100.00
6514;BME280;3290;47.716;9.070;2023-02-14T03:56:20;98796.34;;;3.43;100.00
6514;BME280;3290;47.716;9.070;2023-02-14T03:58:50;98803.78;;;3.47;100.00
6514;BME280;3290;47.716;9.070;2023-02-14T04:01:32;98812.28;;;3.58;100.00
6514;BME280;3290;47.716;9.070;2023-02-14T04:03:59;98806.94;;;3.51;100.00
6514;BME280;3290;47.716;9.070;2023-02-14T04:06:26;98799.09;;;3.41;100.00
6514;BME280;3290;47.716;9.070;2023-02-14T04:08:51;98793.06;;;3.41;100.00
6514;BME280;3290;47.716;9.070;2023-02-14T04:11:17;98800.78;;;3.52;100.00
6514;BME280;3290;47.716;9.070;2023-02-14T04:13:42;98808.44;;;3.53;100.00
6514;BME280;3290;47.716;9.070;2023-02-14T04:16:08;98806.88;;;3.61;100.00
6514;BME280;3290;47.716;9.070;2023-02-14T04:18:33;98808.06;;;3.58;100.00
6514;BME280;3290;47.716;9.070;2023-02-14T04:21:17;98811.81;;;3.64;100.00
6514;BME280;3290;47.716;9.070;2023-02-14T04:23:43;98810.66;;;3.58;100.00
6514;BME280;3290;47.716;9.070;2023-02-14T04:26:08;98812.94;;;3.71;100.00
6514;BME280;3290;47.716;9.070;2023-02-14T04:28:34;98812.38;;;3.68;100.00
6514;BME280;3290;47.716;9.070;2023-02-14T04:31:04;98814.66;;;3.61;100.00
6514;BME280;3290;47.716;9.070;2023-02-14T04:33:31;98812.00;;;3.72;100.00
6514;BME280;3290;47.716;9.070;2023-02-14T04:35:57;98814.53;;;3.83;100.00
6514;BME280;3290;47.716;9.070;2023-02-14T04:38:22;98817.00;;;3.64;100.00
6514;BME280;3290;47.716;9.070;2023-02-14T04:40:49;98819.00;;;3.81;100.00
6514;BME280;3290;47.716;9.070;2023-02-14T04:43:15;98810.53;;;3.79;100.00
6514;BME280;3290;47.716;9.070;2023-02-14T04:45:40;98812.69;;;3.74;100.00
6514;BME280;3290;47.716;9.070;2023-02-14T04:48:06;98817.38;;;3.80;100.00
6514;BME280;3290;47.716;9.070;2023-02-14T04:50:31;98816.72;;;3.67;100.00
6514;BME280;3290;47.716;9.070;2023-02-14T04:52:57;98814.97;;;3.68;100.00
6514;BME280;3290;47.716;9.070;2023-02-14T04:55:22;98805.34;;;3.79;100.00
6514;BME280;3290;47.716;9.070;2023-02-14T04:57:47;98800.94;;;3.70;100.00
6514;BME280;3290;47.716;9.070;2023-02-14T05:00:13;98803.53;;;3.70;100.00
6514;BME280;3290;47.716;9.070;2023-02-14T05:02:39;98799.31;;;3.69;100.00
6514;BME280;3290;47.716;9.070;2023-02-14T05:05:04;98796.25;;;3.64;100.00
6514;BME280;3290;47.716;9.070;2023-02-14T05:07:30;98789.63;;;3.71;100.00
6514;BME280;3290;47.716;9.070;2023-02-14T05:09:55;98782.66;;;3.72;100.00
6514;BME280;3290;47.716;9.070;2023-02-14T05:12:20;98786.03;;;3.83;100.00
6514;BME280;3290;47.716;9.070;2023-02-14T05:14:46;98777.81;;;3.78;100.00
6514;BME280;3290;47.716;9.070;2023-02-14T05:17:11;98781.66;;;3.84;100.00
6514;BME280;3290;47.716;9.070;2023-02-14T05:19:37;98780.41;;;3.78;100.00
6514;BME280;3290;47.716;9.070;2023-02-14T05:22:02;98775.78;;;3.61;100.00
6514;BME280;3290;47.716;9.070;2023-02-14T05:24:28;98776.22;;;3.66;100.00
6514;BME280;3290;47.716;9.070;2023-02-14T05:26:53;98771.97;;;3.65;100.00
6514;BME280;3290;47.716;9.070;2023-02-14T05:29:18;98776.59;;;3.62;100.00
6514;BME280;3290;47.716;9.070;2023-02-14T05:31:44;98781.16;;;3.69;100.00
6514;BME280;3290;47.716;9.070;2023-02-14T05:34:10;98783.31;;;3.64;100.00
6514;BME280;3290;47.716;9.070;2023-02-14T05:36:35;98783.25;;;3.75;100.00
6514;BME280;3290;47.716;9.070;2023-02-14T05:39:00;98786.75;;;3.74;100.00
6514;BME280;3290;47.716;9.070;2023-02-14T05:41:26;98795.56;;;3.62;100.00
6514;BME280;3290;47.716;9.070;2023-02-14T05:43:51;98800.44;;;3.76;100.00
6514;BME280;3290;47.716;9.070;2023-02-14T05:46:16;98791.91;;;3.85;100.00
6514;BME280;3290;47.716;9.070;2023-02-14T05:48:42;98788.88;;;3.80;100.00
6514;BME280;3290;47.716;9.070;2023-02-14T05:51:09;98786.28;;;3.80;100.00
6514;BME280;3290;47.716;9.070;2023-02-14T05:53:35;98787.13;;;3.90;100.00
6514;BME280;3290;47.716;9.070;2023-02-14T05:56:00;98793.16;;;3.91;100.00
6514;BME280;3290;47.716;9.070;2023-02-14T05:58:25;98788.41;;;3.75;100.00
6514;BME280;3290;47.716;9.070;2023-02-14T06:00:51;98791.81;;;3.96;100.00
6514;BME280;3290;47.716;9.070;2023-02-14T06:03:16;98796.41;;;3.83;100.00
6514;BME280;3290;47.716;9.070;2023-02-14T06:05:42;98801.38;;;3.96;100.00
6514;BME280;3290;47.716;9.070;2023-02-14T06:08:07;98797.84;;;3.76;100.00
6514;BME280;3290;47.716;9.070;2023-02-14T06:10:33;98795.72;;;4.11;100.00
6514;BME280;3290;47.716;9.070;2023-02-14T06:12:58;98803.56;;;4.00;100.00
6514;BME280;3290;47.716;9.070;2023-02-14T06:15:24;98808.06;;;3.98;100.00
6514;BME280;3290;47.716;9.070;2023-02-14T06:17:56;98807.88;;;3.90;100.00
6514;BME280;3290;47.716;9.070;2023-02-14T06:20:23;98816.25;;;3.42;100.00
6514;BME280;3290;47.716;9.070;2023-02-14T06:22:49;98812.06;;;3.61;100.00
6514;BME280;3290;47.716;9.070;2023-02-14T06:25:14;98819.75;;;3.72;100.00
6514;BME280;3290;47.716;9.070;2023-02-14T06:27:40;98821.66;;;3.70;100.00
6514;BME280;3290;47.716;9.070;2023-02-14T06:30:06;98827.94;;;3.68;100.00
6514;BME280;3290;47.716;9.070;2023-02-14T06:32:32;98826.91;;;3.59;100.00
6514;BME280;3290;47.716;9.070;2023-02-14T06:34:57;98825.22;;;3.69;100.00
6514;BME280;3290;47.716;9.070;2023-02-14T06:37:22;98828.56;;;3.60;100.00
6514;BME280;3290;47.716;9.070;2023-02-14T06:39:48;98820.94;;;3.48;100.00
6514;BME280;3290;47.716;9.070;2023-02-14T06:42:13;98830.88;;;3.63;100.00
6514;BME280;3290;47.716;9.070;2023-02-14T06:44:39;98827.84;;;3.58;100.00
6514;BME280;3290;47.716;9.070;2023-02-14T06:47:04;98837.28;;;3.59;100.00
6514;BME280;3290;47.716;9.070;2023-02-14T06:49:30;98835.50;;;3.60;100.00
6514;BME280;3290;47.716;9.070;2023-02-14T06:51:55;98831.28;;;3.79;100.00
6514;BME280;3290;47.716;9.070;2023-02-14T06:54:20;98836.97;;;3.73;100.00
6514;BME280;3290;47.716;9.070;2023-02-14T06:56:46;98842.97;;;3.54;100.00
6514;BME280;3290;47.716;9.070;2023-02-14T06:59:11;98839.88;;;3.59;100.00
6514;BME280;3290;47.716;9.070;2023-02-14T07:01:36;98841.25;;;3.63;100.00
6514;BME280;3290;47.716;9.070;2023-02-14T07:04:03;98852.94;;;3.58;100.00
6514;BME280;3290;47.716;9.070;2023-02-14T07:06:28;98860.25;;;3.53;100.00
6514;BME280;3290;47.716;9.070;2023-02-14T07:08:54;98853.28;;;3.64;100.00
6514;BME280;3290;47.716;9.070;2023-02-14T07:11:19;98857.88;;;3.61;100.00
6514;BME280;3290;47.716;9.070;2023-02-14T07:13:45;98858.44;;;3.64;100.00
6514;BME280;3290;47.716;9.070;2023-02-14T07:16:10;98855.16;;;3.62;100.00
6514;BME280;3290;47.716;9.070;2023-02-14T07:18:36;98853.50;;;3.61;100.00
6514;BME280;3290;47.716;9.070;2023-02-14T07:21:02;98855.97;;;3.63;100.00
6514;BME280;3290;47.716;9.070;2023-02-14T07:23:27;98859.19;;;3.56;100.00
6514;BME280;3290;47.716;9.070;2023-02-14T07:25:54;98848.09;;;3.64;100.00
6514;BME280;3290;47.716;9.070;2023-02-14T07:28:19;98845.44;;;3.75;100.00
6514;BME280;3290;47.716;9.070;2023-02-14T07:30:44;98845.50;;;3.64;100.00
6514;BME280;3290;47.716;9.070;2023-02-14T07:33:10;98842.16;;;3.73;100.00
6514;BME280;3290;47.716;9.070;2023-02-14T07:35:36;98837.47;;;3.88;100.00
6514;BME280;3290;47.716;9.070;2023-02-14T07:38:01;98836.56;;;3.78;100.00
6514;BME280;3290;47.716;9.070;2023-02-14T07:40:27;98828.44;;;3.82;100.00
6514;BME280;3290;47.716;9.070;2023-02-14T07:42:55;98837.41;;;3.98;100.00
6514;BME280;3290;47.716;9.070;2023-02-14T07:45:22;98837.59;;;3.86;100.00
6514;BME280;3290;47.716;9.070;2023-02-14T07:47:49;98824.28;;;3.91;100.00
6514;BME280;3290;47.716;9.070;2023-02-14T07:50:15;98826.84;;;3.91;100.00
6514;BME280;3290;47.716;9.070;2023-02-14T07:52:40;98828.75;;;3.89;100.00
6514;BME280;3290;47.716;9.070;2023-02-14T07:55:06;98828.44;;;4.02;100.00
6514;BME280;3290;47.716;9.070;2023-02-14T07:57:32;98830.25;;;3.91;100.00
6514;BME280;3290;47.716;9.070;2023-02-14T07:59:57;98828.28;;;4.04;100.00
6514;BME280;3290;47.716;9.070;2023-02-14T08:02:22;98829.69;;;4.08;100.00
6514;BME280;3290;47.716;9.070;2023-02-14T08:04:48;98834.56;;;3.81;100.00
6514;BME280;3290;47.716;9.070;2023-02-14T08:07:13;98830.44;;;3.58;100.00
6514;BME280;3290;47.716;9.070;2023-02-14T08:09:38;98832.03;;;3.70;100.00
6514;BME280;3290;47.716;9.070;2023-02-14T08:12:04;98829.19;;;3.73;100.00
6514;BME280;3290;47.716;9.070;2023-02-14T08:14:48;98830.41;;;3.69;100.00
6514;BME280;3290;47.716;9.070;2023-02-14T08:17:13;98830.19;;;4.02;100.00
6514;BME280;3290;47.716;9.070;2023-02-14T08:19:39;98831.19;;;3.90;100.00
6514;BME280;3290;47.716;9.070;2023-02-14T08:22:05;98829.69;;;3.88;100.00
6514;BME280;3290;47.716;9.070;2023-02-14T08:24:31;98819.69;;;4.03;100.00
6514;BME280;3290;47.716;9.070;2023-02-14T08:26:56;98824.34;;;4.09;100.00
6514;BME280;3290;47.716;9.070;2023-02-14T08:29:22;98816.22;;;4.14;100.00
6514;BME280;3290;47.716;9.070;2023-02-14T08:31:48;98818.44;;;4.18;100.00
6514;BME280;3290;47.716;9.070;2023-02-14T08:34:14;98819.38;;;3.97;100.00
6514;BME280;3290;47.716;9.070;2023-02-14T08:36:40;98816.16;;;4.04;100.00
6514;BME280;3290;47.716;9.070;2023-02-14T08:39:06;98807.81;;;4.01;100.00
6514;BME280;3290;47.716;9.070;2023-02-14T08:41:33;98806.22;;;4.09;100.00
6514;BME280;3290;47.716;9.070;2023-02-14T08:43:58;98811.06;;;3.73;100.00
6514;BME280;3290;47.716;9.070;2023-02-14T08:46:24;98803.97;;;3.96;100.00
6514;BME280;3290;47.716;9.070;2023-02-14T08:48:49;98805.47;;;3.98;100.00
6514;BME280;3290;47.716;9.070;2023-02-14T08:51:16;98811.91;;;4.03;100.00
6514;BME280;3290;47.716;9.070;2023-02-14T08:53:42;98814.25;;;4.06;100.00
6514;BME280;3290;47.716;9.070;2023-02-14T08:56:11;98809.88;;;4.07;100.00
6514;BME280;3290;47.716;9.070;2023-02-14T08:58:37;98811.53;;;4.08;100.00
6514;BME280;3290;47.716;9.070;2023-02-14T09:01:14;98807.75;;;4.12;100.00
6514;BME280;3290;47.716;9.070;2023-02-14T09:03:39;98818.88;;;4.03;100.00
6514;BME280;3290;47.716;9.070;2023-02-14T09:06:06;98807.88;;;3.90;100.00
6514;BME280;3290;47.716;9.070;2023-02-14T09:08:32;98818.00;;;3.93;100.00
6514;BME280;3290;47.716;9.070;2023-02-14T09:11:06;98812.97;;;4.21;100.00
6514;BME280;3290;47.716;9.070;2023-02-14T09:13:31;98812.81;;;3.93;100.00
6514;BME280;3290;47.716;9.070;2023-02-14T09:15:56;98812.44;;;3.97;100.00
6514;BME280;3290;47.716;9.070;2023-02-14T09:18:22;98808.63;;;3.81;100.00
6514;BME280;3290;47.716;9.070;2023-02-14T09:20:47;98800.47;;;4.06;100.00
6514;BME280;3290;47.716;9.070;2023-02-14T09:23:12;98802.88;;;4.18;100.00
6514;BME280;3290;47.716;9.070;2023-02-14T09:25:38;98803.34;;;4.33;100.00
6514;BME280;3290;47.716;9.070;2023-02-14T09:28:03;98798.66;;;4.27;100.00
6514;BME280;3290;47.716;9.070;2023-02-14T09:30:29;98792.28;;;4.31;100.00
6514;BME280;3290;47.716;9.070;2023-02-14T09:32:54;98798.38;;;4.50;100.00
6514;BME280;3290;47.716;9.070;2023-02-14T09:35:19;98794.25;;;4.47;100.00
6514;BME280;3290;47.716;9.070;2023-02-14T09:37:45;98790.59;;;4.59;100.00
6514;BME280;3290;47.716;9.070;2023-02-14T09:40:30;98795.53;;;4.62;100.00
6514;BME280;3290;47.716;9.070;2023-02-14T09:43:10;98784.59;;;4.68;100.00
6514;BME280;3290;47.716;9.070;2023-02-14T09:45:39;98790.03;;;4.46;100.00
6514;BME280;3290;47.716;9.070;2023-02-14T09:48:16;98780.19;;;4.50;100.00
6514;BME280;3290;47.716;9.070;2023-02-14T09:50:59;98786.19;;;4.11;100.00
6514;BME280;3290;47.716;9.070;2023-02-14T09:53:32;98788.25;;;3.97;100.00
6514;BME280;3290;47.716;9.070;2023-02-14T09:56:15;98797.78;;;3.87;100.00
6514;BME280;3290;47.716;9.070;2023-02-14T09:58:52;98791.75;;;4.37;100.00
6514;BME280;3290;47.716;9.070;2023-02-14T10:01:36;98786.03;;;4.42;100.00
6514;BME280;3290;47.716;9.070;2023-02-14T10:04:37;98791.50;;;4.49;100.00
6514;BME280;3290;47.716;9.070;2023-02-14T10:10:36;98786.34;;;4.58;100.00
6514;BME280;3290;47.716;9.070;2023-02-14T10:13:13;98784.97;;;4.54;100.00
6514;BME280;3290;47.716;9.070;2023-02-14T10:15:43;98781.75;;;4.71;100.00
6514;BME280;3290;47.716;9.070;2023-02-14T10:18:21;98777.38;;;4.62;100.00
6514;BME280;3290;47.716;9.070;2023-02-14T10:21:00;98777.41;;;4.33;100.00
6514;BME280;3290;47.716;9.070;2023-02-14T10:23:35;98766.13;;;4.52;100.00
6514;BME280;3290;47.716;9.070;2023-02-14T10:26:04;98760.72;;;4.74;100.00
6514;BME280;3290;47.716;9.070;2023-02-14T10:28:44;98767.00;;;4.62;100.00
6514;BME280;3290;47.716;9.070;2023-02-14T10:34:03;98767.97;;;4.80;100.00
6514;BME280;3290;47.716;9.070;2023-02-14T10:41:59;98749.34;;;4.56;100.00
6514;BME280;3290;47.716;9.070;2023-02-14T10:44:38;98746.78;;;4.84;100.00
6514;BME280;3290;47.716;9.070;2023-02-14T10:49:57;98739.13;;;4.74;100.00
6514;BME280;3290;47.716;9.070;2023-02-14T10:52:36;98733.06;;;4.54;100.00
6514;BME280;3290;47.716;9.070;2023-02-14T10:55:18;98724.38;;;4.74;100.00
6514;BME280;3290;47.716;9.070;2023-02-14T10:57:47;98720.41;;;4.70;100.00
6514;BME280;3290;47.716;9.070;2023-02-14T11:00:22;98723.63;;;4.35;100.00
6514;BME280;3290;47.716;9.070;2023-02-14T11:02:56;98721.81;;;4.26;100.00
6514;BME280;3290;47.716;9.070;2023-02-14T11:05:28;98714.47;;;4.40;100.00
6514;BME280;3290;47.716;9.070;2023-02-14T11:07:55;98719.59;;;4.79;100.00
6514;BME280;3290;47.716;9.070;2023-02-14T11:10:25;98717.28;;;4.76;100.00
6514;BME280;3290;47.716;9.070;2023-02-14T11:12:52;98714.56;;;4.87;100.00
6514;BME280;3290;47.716;9.070;2023-02-14T11:15:38;98712.38;;;4.92;100.00
6514;BME280;3290;47.716;9.070;2023-02-14T11:18:20;98710.06;;;5.08;100.00
6514;BME280;3290;47.716;9.070;2023-02-14T11:23:31;98712.63;;;4.98;100.00
6514;BME280;3290;47.716;9.070;2023-02-14T11:25:58;98704.03;;;5.07;100.00
6514;BME280;3290;47.716;9.070;2023-02-14T11:28:25;98706.09;;;4.94;100.00
6514;BME280;3290;47.716;9.070;2023-02-14T11:30:51;98702.66;;;4.84;100.00
6514;BME280;3290;47.716;9.070;2023-02-14T11:33:39;98703.22;;;4.78;100.00
6514;BME280;3290;47.716;9.070;2023-02-14T11:36:12;98696.94;;;5.00;100.00
6514;BME280;3290;47.716;9.070;2023-02-14T11:38:40;98691.44;;;4.93;100.00
6514;BME280;3290;47.716;9.070;2023-02-14T11:41:08;98686.66;;;5.26;100.00
6514;BME280;3290;47.716;9.070;2023-02-14T11:43:37;98685.19;;;5.15;100.00
6514;BME280;3290;47.716;9.070;2023-02-14T11:46:12;98678.84;;;5.26;100.00
6514;BME280;3290;47.716;9.070;2023-02-14T11:48:38;98679.44;;;5.11;100.00
6514;BME280;3290;47.716;9.070;2023-02-14T11:51:26;98669.44;;;5.16;100.00
6514;BME280;3290;47.716;9.070;2023-02-14T11:53:54;98666.69;;;5.17;100.00
6514;BME280;3290;47.716;9.070;2023-02-14T11:56:21;98667.00;;;4.77;100.00
6514;BME280;3290;47.716;9.070;2023-02-14T11:59:01;98661.78;;;4.86;100.00
6514;BME280;3290;47.716;9.070;2023-02-14T12:01:34;98661.53;;;5.08;100.00
6514;BME280;3290;47.716;9.070;2023-02-14T12:04:12;98656.69;;;5.41;100.00
6514;BME280;3290;47.716;9.070;2023-02-14T12:06:39;98658.06;;;5.26;100.00
6514;BME280;3290;47.716;9.070;2023-02-14T12:12:00;98643.22;;;5.10;100.00
6514;BME280;3290;47.716;9.070;2023-02-14T12:14:29;98642.13;;;5.21;100.00
6514;BME280;3290;47.716;9.070;2023-02-14T12:20:09;98632.69;;;5.11;100.00
6514;BME280;3290;47.716;9.070;2023-02-14T12:27:46;98628.72;;;5.62;100.00
6514;BME280;3290;47.716;9.070;2023-02-14T12:30:16;98628.88;;;5.51;100.00
6514;BME280;3290;47.716;9.070;2023-02-14T12:32:53;98620.88;;;5.71;100.00
6514;BME280;3290;47.716;9.070;2023-02-14T12:40:54;98616.81;;;5.23;100.00
6514;BME280;3290;47.716;9.070;2023-02-14T12:52:17;98605.06;;;5.56;100.00
6514;BME280;3290;47.716;9.070;2023-02-14T12:57:56;98599.06;;;5.55;100.00
6514;BME280;3290;47.716;9.070;2023-02-14T13:00:47;98588.63;;;5.64;100.00
6514;BME280;3290;47.716;9.070;2023-02-14T13:06:13;98592.63;;;5.14;100.00
6514;BME280;3290;47.716;9.070;2023-02-14T13:11:29;98589.06;;;5.15;100.00
6514;BME280;3290;47.716;9.070;2023-02-14T13:17:09;98573.63;;;5.49;100.00
6514;BME280;3290;47.716;9.070;2023-02-14T13:22:11;98561.81;;;5.37;100.00
6514;BME280;3290;47.716;9.070;2023-02-14T13:24:50;98557.22;;;5.49;100.00
6514;BME280;3290;47.716;9.070;2023-02-14T13:27:25;98564.63;;;5.44;100.00
6514;BME280;3290;47.716;9.070;2023-02-14T13:30:06;98561.34;;;5.42;100.00
6514;BME280;3290;47.716;9.070;2023-02-14T13:32:41;98558.69;;;5.60;100.00
6514;BME280;3290;47.716;9.070;2023-02-14T13:35:15;98544.97;;;5.95;100.00
6514;BME280;3290;47.716;9.070;2023-02-14T13:37:44;98560.56;;;5.68;100.00
6514;BME280;3290;47.716;9.070;2023-02-14T13:40:19;98555.84;;;5.54;100.00
6514;BME280;3290;47.716;9.070;2023-02-14T13:50:32;98550.13;;;5.15;100.00
6514;BME280;3290;47.716;9.070;2023-02-14T13:52:58;98548.81;;;5.37;100.00
6514;BME280;3290;47.716;9.070;2023-02-14T13:55:28;98542.78;;;5.73;100.00
6514;BME280;3290;47.716;9.070;2023-02-14T13:58:14;98549.25;;;5.59;100.00
6514;BME280;3290;47.716;9.070;2023-02-14T14:00:43;98547.63;;;5.49;100.00
6514;BME280;3290;47.716;9.070;2023-02-14T14:06:01;98538.63;;;5.53;100.00
6514;BME280;3290;47.716;9.070;2023-02-14T14:14:26;98539.91;;;5.40;100.00
6514;BME280;3290;47.716;9.070;2023-02-14T14:16:58;98537.97;;;4.96;100.00
6514;BME280;3290;47.716;9.070;2023-02-14T14:24:37;98540.00;;;5.12;100.00
6514;BME280;3290;47.716;9.070;2023-02-14T14:27:14;98543.09;;;5.24;100.00
6514;BME280;3290;47.716;9.070;2023-02-14T14:32:24;98538.47;;;5.09;100.00
6514;BME280;3290;47.716;9.070;2023-02-14T14:35:01;98537.53;;;5.10;100.00
6514;BME280;3290;47.716;9.070;2023-02-14T14:37:29;98538.97;;;5.31;100.00
6514;BME280;3290;47.716;9.070;2023-02-14T14:39:57;98537.03;;;5.33;100.00
6514;BME280;3290;47.716;9.070;2023-02-14T14:42:26;98527.81;;;5.12;100.00
6514;BME280;3290;47.716;9.070;2023-02-14T14:44:56;98529.09;;;5.44;100.00
6514;BME280;3290;47.716;9.070;2023-02-14T14:47:24;98523.31;;;5.50;100.00
6514;BME280;3290;47.716;9.070;2023-02-14T14:49:52;98522.88;;;5.18;100.00
6514;BME280;3290;47.716;9.070;2023-02-14T14:52:32;98521.47;;;4.97;100.00
6514;BME280;3290;47.716;9.070;2023-02-14T14:54:58;98524.28;;;5.04;100.00
6514;BME280;3290;47.716;9.070;2023-02-14T14:57:25;98531.72;;;4.89;100.00
6514;BME280;3290;47.716;9.070;2023-02-14T15:00:03;98526.66;;;4.88;100.00
6514;BME280;3290;47.716;9.070;2023-02-14T15:02:31;98533.81;;;5.13;100.00
6514;BME280;3290;47.716;9.070;2023-02-14T15:04:57;98524.72;;;4.99;100.00
6514;BME280;3290;47.716;9.070;2023-02-14T15:07:34;98519.97;;;5.31;100.00
6514;BME280;3290;47.716;9.070;2023-02-14T15:10:00;98520.38;;;5.36;100.00
6514;BME280;3290;47.716;9.070;2023-02-14T15:12:27;98514.38;;;5.26;100.00
6514;BME280;3290;47.716;9.070;2023-02-14T15:15:15;98520.59;;;5.06;100.00
6514;BME280;3290;47.716;9.070;2023-02-14T15:17:42;98513.06;;;5.13;100.00
6514;BME280;3290;47.716;9.070;2023-02-14T15:20:13;98520.97;;;5.20;100.00
6514;BME280;3290;47.716;9.070;2023-02-14T15:22:45;98515.28;;;5.08;100.00
6514;BME280;3290;47.716;9.070;2023-02-14T15:25:17;98507.84;;;5.13;100.00
6514;BME280;3290;47.716;9.070;2023-02-14T15:27:43;98503.44;;;5.22;100.00
6514;BME280;3290;47.716;9.070;2023-02-14T15:32:45;98503.97;;;5.26;100.00
6514;BME280;3290;47.716;9.070;2023-02-14T15:35:13;98500.91;;;5.40;100.00
6514;BME280;3290;47.716;9.070;2023-02-14T15:37:41;98511.06;;;5.33;100.00
6514;BME280;3290;47.716;9.070;2023-02-14T15:40:07;98513.97;;;5.30;100.00
6514;BME280;3290;47.716;9.070;2023-02-14T15:42:43;98511.09;;;5.24;100.00